Time;durP1;ratioP1;P1;durP2;ratioP2;P2;SDS_P1;SDS_P2;PMS_P1;PMS_P2;Temp;Humidity;BMP_temperature;BMP_pressure;BME280_temperature;BME280_humidity;BME280_pressure;Samples;Min_cycle;Max_cycle;Signal;HPM_P1;HPM_P2
2021/11/22 00:00:20;;;;;;;19.53;14.30;;;8.30;99.90;;;;;;5041101;28;20207;-52
2021/11/22 00:02:47;;;;;;;18.10;13.37;;;8.40;99.90;;;;;;5042614;28;20565;-52
2021/11/22 00:05:13;;;;;;;16.20;11.60;;;8.40;99.90;;;;;;5046179;28;20434;-52
2021/11/22 00:07:39;;;;;;;16.10;12.30;;;8.40;99.90;;;;;;5041752;28;20457;-54
2021/11/22 00:10:06;;;;;;;17.80;14.10;;;8.20;99.90;;;;;;5042652;28;20504;-53
2021/11/22 00:12:33;;;;;;;21.13;13.90;;;8.20;99.90;;;;;;5042702;28;20603;-52
2021/11/22 00:15:00;;;;;;;17.83;13.00;;;8.30;99.90;;;;;;5041522;28;23061;-53
2021/11/22 00:17:26;;;;;;;14.80;11.97;;;8.30;99.90;;;;;;5042324;28;20442;-50
2021/11/22 00:19:52;;;;;;;19.50;14.37;;;8.20;99.90;;;;;;5041382;28;20833;-55
2021/11/22 00:22:17;;;;;;;18.00;13.10;;;8.10;99.90;;;;;;5044162;28;20222;-51
2021/11/22 00:24:43;;;;;;;19.17;14.13;;;8.00;99.90;;;;;;5040823;28;20192;-52
2021/11/22 00:27:09;;;;;;;17.07;13.20;;;8.20;99.90;;;;;;5041280;28;20211;-52
2021/11/22 00:29:35;;;;;;;18.43;14.00;;;8.00;99.90;;;;;;5040535;28;20298;-51
2021/11/22 00:32:03;;;;;;;17.13;13.03;;;8.00;99.90;;;;;;5042234;28;20442;-50
2021/11/22 00:34:30;;;;;;;17.37;11.87;;;8.00;99.90;;;;;;5042921;28;20233;-52
2021/11/22 00:36:55;;;;;;;17.70;11.73;;;8.10;99.90;;;;;;5044085;28;20438;-52
2021/11/22 00:39:21;;;;;;;16.63;12.30;;;8.10;99.90;;;;;;5041454;28;20449;-54
2021/11/22 00:41:47;;;;;;;16.50;12.10;;;8.20;99.90;;;;;;5045142;28;20542;-53
2021/11/22 00:44:13;;;;;;;15.03;11.17;;;8.20;99.90;;;;;;5042029;28;20269;-53
2021/11/22 00:46:39;;;;;;;13.97;10.30;;;8.10;99.90;;;;;;5043149;28;20211;-54
2021/11/22 00:49:05;;;;;;;16.40;12.13;;;8.00;99.90;;;;;;5043140;28;20435;-55
2021/11/22 00:51:31;;;;;;;15.20;10.73;;;8.10;99.90;;;;;;5043728;28;20276;-52
2021/11/22 00:53:57;;;;;;;16.60;12.50;;;8.10;99.90;;;;;;5044692;28;20550;-52
2021/11/22 00:56:23;;;;;;;15.13;11.17;;;8.00;99.90;;;;;;5040101;28;20892;-52
2021/11/22 00:58:48;;;;;;;18.53;12.50;;;8.00;99.90;;;;;;5043236;28;20749;-54
2021/11/22 01:01:14;;;;;;;17.30;11.27;;;7.90;99.90;;;;;;5042960;28;20206;-51
2021/11/22 01:03:40;;;;;;;14.30;10.60;;;8.00;99.90;;;;;;5043494;28;20188;-53
2021/11/22 01:06:05;;;;;;;13.97;11.10;;;8.10;99.90;;;;;;5040702;28;20187;-51
2021/11/22 01:08:31;;;;;;;15.50;11.43;;;8.00;99.90;;;;;;5043593;28;20187;-51
2021/11/22 01:10:57;;;;;;;12.90;10.20;;;8.00;99.90;;;;;;5040950;28;20222;-55
2021/11/22 01:13:22;;;;;;;16.70;11.90;;;8.00;99.90;;;;;;5042673;28;20192;-53
2021/11/22 01:15:48;;;;;;;16.27;11.00;;;8.00;99.90;;;;;;5038579;28;20187;-52
2021/11/22 01:18:14;;;;;;;14.10;10.43;;;8.00;99.90;;;;;;5044293;28;20191;-49
2021/11/22 01:20:41;;;;;;;14.70;10.40;;;8.00;99.90;;;;;;5040180;28;20222;-55
2021/11/22 01:23:11;;;;;;;16.73;11.63;;;8.00;99.90;;;;;;5040079;28;20180;-54
2021/11/22 01:25:40;;;;;;;14.83;10.57;;;7.90;99.90;;;;;;5042464;28;20938;-53
2021/11/22 01:28:06;;;;;;;21.33;10.10;;;7.80;99.90;;;;;;5041727;28;20469;-52
2021/11/22 01:30:32;;;;;;;13.83;9.77;;;7.70;99.90;;;;;;5042955;28;21140;-53
2021/11/22 01:32:57;;;;;;;18.20;10.80;;;7.80;99.90;;;;;;5042785;28;20434;-53
2021/11/22 01:35:23;;;;;;;14.60;10.37;;;7.90;99.90;;;;;;5040906;28;20727;-52
2021/11/22 01:37:49;;;;;;;12.10;8.97;;;8.00;99.90;;;;;;5043878;28;20179;-54
2021/11/22 01:40:20;;;;;;;14.50;10.00;;;8.00;99.90;;;;;;5041410;28;20655;-49
2021/11/22 01:42:46;;;;;;;14.13;10.60;;;8.00;99.90;;;;;;5042016;28;20446;-51
2021/11/22 01:45:15;;;;;;;13.80;10.00;;;8.10;99.90;;;;;;5039499;28;20991;-52
2021/11/22 01:47:42;;;;;;;13.20;9.87;;;8.10;99.90;;;;;;5037694;28;21038;-55
2021/11/22 01:50:12;;;;;;;12.10;9.10;;;8.10;99.90;;;;;;5043225;28;20441;-53
2021/11/22 01:52:39;;;;;;;13.17;10.30;;;8.00;99.90;;;;;;5043304;28;20472;-52
2021/11/22 01:55:06;;;;;;;12.43;9.77;;;8.10;99.90;;;;;;5037983;28;20434;-50
2021/11/22 01:57:32;;;;;;;12.47;9.30;;;8.10;99.90;;;;;;5039578;28;20434;-53
2021/11/22 01:59:58;;;;;;;12.63;10.20;;;8.10;99.90;;;;;;5036616;28;20454;-55
2021/11/22 02:02:24;;;;;;;12.03;9.53;;;8.10;99.90;;;;;;5042578;28;20189;-53
2021/11/22 02:04:49;;;;;;;11.03;8.60;;;8.00;99.90;;;;;;5040481;28;20473;-55
2021/11/22 02:07:15;;;;;;;12.30;9.67;;;8.10;99.90;;;;;;5041039;28;20213;-53
2021/11/22 02:09:40;;;;;;;12.60;9.07;;;8.10;99.90;;;;;;5040999;28;20238;-53
2021/11/22 02:12:06;;;;;;;10.57;8.20;;;8.20;99.90;;;;;;5039751;28;20401;-54
2021/11/22 02:14:33;;;;;;;11.40;9.00;;;8.20;99.90;;;;;;5039602;28;20583;-53
2021/11/22 02:16:58;;;;;;;12.60;8.90;;;8.20;99.90;;;;;;5037614;28;20448;-54
2021/11/22 02:19:24;;;;;;;12.30;9.60;;;8.10;99.90;;;;;;5044427;28;20461;-51
2021/11/22 02:21:49;;;;;;;12.63;9.80;;;8.20;99.90;;;;;;5042043;28;20187;-51
2021/11/22 02:24:15;;;;;;;13.23;9.87;;;8.00;99.90;;;;;;5040165;28;20191;-49
2021/11/22 02:26:41;;;;;;;14.57;9.80;;;7.90;99.90;;;;;;5043085;28;20397;-53
2021/11/22 02:29:07;;;;;;;11.93;8.67;;;8.00;99.90;;;;;;5041828;28;20439;-54
2021/11/22 02:31:33;;;;;;;13.80;10.63;;;8.10;99.90;;;;;;5039916;28;20620;-54
2021/11/22 02:33:59;;;;;;;13.10;9.27;;;8.00;99.90;;;;;;5040317;28;20822;-53
2021/11/22 02:36:25;;;;;;;14.80;9.50;;;8.00;99.90;;;;;;5040578;28;20472;-54
2021/11/22 02:38:51;;;;;;;13.17;9.33;;;8.10;99.90;;;;;;5042130;28;20214;-53
2021/11/22 02:41:17;;;;;;;12.33;8.30;;;8.10;99.90;;;;;;5039090;28;20438;-52
2021/11/22 02:43:45;;;;;;;11.03;8.00;;;8.20;99.90;;;;;;5040455;28;20726;-50
2021/11/22 02:46:11;;;;;;;13.30;10.10;;;8.20;99.90;;;;;;5041933;28;20971;-51
2021/11/22 02:48:37;;;;;;;11.70;9.30;;;8.10;99.90;;;;;;5039761;28;20535;-53
2021/11/22 02:51:07;;;;;;;11.03;8.50;;;8.10;99.90;;;;;;5040072;28;21034;-54
2021/11/22 02:53:33;;;;;;;11.90;8.60;;;8.10;99.90;;;;;;5039547;28;20555;-54
2021/11/22 02:56:03;;;;;;;13.50;9.73;;;8.10;99.90;;;;;;5040753;28;20469;-54
2021/11/22 02:58:30;;;;;;;11.10;8.60;;;8.10;99.90;;;;;;5040156;28;20422;-53
2021/11/22 03:00:56;;;;;;;11.23;8.50;;;8.10;99.90;;;;;;5038196;28;21029;-54
2021/11/22 03:03:27;;;;;;;14.07;9.50;;;8.10;99.90;;;;;;5037881;28;20433;-53
2021/11/22 03:06:10;;;;;;;12.30;8.73;;;8.20;99.90;;;;;;5040487;28;20649;-55
2021/11/22 03:08:38;;;;;;;12.63;9.00;;;8.10;99.90;;;;;;5041641;28;20442;-54
2021/11/22 03:11:05;;;;;;;12.53;8.07;;;8.10;99.90;;;;;;5041501;28;20446;-54
2021/11/22 03:13:30;;;;;;;9.83;8.20;;;8.20;99.90;;;;;;5040798;28;20502;-54
2021/11/22 03:15:56;;;;;;;14.03;9.10;;;8.10;99.90;;;;;;5040242;28;20529;-55
2021/11/22 03:18:22;;;;;;;9.93;8.03;;;8.20;99.90;;;;;;5043811;28;20184;-54
2021/11/22 03:20:48;;;;;;;11.47;8.80;;;8.20;99.90;;;;;;5036877;28;20199;-55
2021/11/22 03:23:13;;;;;;;14.97;8.20;;;8.20;99.90;;;;;;5041505;28;20183;-52
2021/11/22 03:25:39;;;;;;;11.10;8.03;;;8.10;99.90;;;;;;5039551;28;20179;-56
2021/11/22 03:28:06;;;;;;;10.20;7.33;;;8.10;99.90;;;;;;5039005;28;20223;-54
2021/11/22 03:30:31;;;;;;;10.43;7.50;;;8.10;99.90;;;;;;5039737;28;20196;-52
2021/11/22 03:32:57;;;;;;;14.87;7.50;;;7.90;99.90;;;;;;5037467;28;20589;-56
2021/11/22 03:35:23;;;;;;;12.07;8.00;;;7.90;99.90;;;;;;5044182;28;20275;-54
2021/11/22 03:37:49;;;;;;;10.00;7.73;;;8.00;99.90;;;;;;5044237;28;20199;-54
2021/11/22 03:40:14;;;;;;;10.20;8.13;;;8.10;99.90;;;;;;5044471;28;20461;-55
2021/11/22 03:42:51;;;;;;;10.77;7.57;;;8.00;99.90;;;;;;5045969;28;20176;-52
2021/11/22 03:45:18;;;;;;;11.77;8.03;;;8.10;99.90;;;;;;5038842;28;20187;-54
2021/11/22 03:47:43;;;;;;;11.23;7.97;;;8.10;99.90;;;;;;5046218;28;20462;-55
2021/11/22 03:50:09;;;;;;;12.50;8.50;;;8.00;99.90;;;;;;5039843;28;20465;-52
2021/11/22 03:52:35;;;;;;;11.47;8.20;;;8.00;99.90;;;;;;5043779;28;20188;-50
2021/11/22 03:55:00;;;;;;;11.20;7.97;;;7.90;99.90;;;;;;5043914;28;20186;-53
2021/11/22 03:57:29;;;;;;;9.17;7.13;;;7.90;99.90;;;;;;5044506;28;20585;-53
2021/11/22 03:59:58;;;;;;;12.60;7.67;;;7.90;99.90;;;;;;5043697;28;20207;-51
2021/11/22 04:02:24;;;;;;;10.63;8.27;;;7.90;99.90;;;;;;5045279;28;20488;-55
2021/11/22 04:04:49;;;;;;;11.73;7.90;;;7.90;99.90;;;;;;5043297;28;20449;-55
2021/11/22 04:07:15;;;;;;;11.67;7.97;;;8.00;99.90;;;;;;5042153;28;20494;-53
2021/11/22 04:09:41;;;;;;;11.27;7.07;;;8.10;99.90;;;;;;5041818;28;20215;-53
2021/11/22 04:12:06;;;;;;;9.27;7.03;;;8.00;99.90;;;;;;5042910;28;20806;-53
2021/11/22 04:14:32;;;;;;;9.53;7.57;;;8.10;99.90;;;;;;5043886;28;20219;-55
2021/11/22 04:16:58;;;;;;;9.30;7.60;;;8.10;99.90;;;;;;5043099;28;20192;-53
2021/11/22 04:19:23;;;;;;;10.97;7.77;;;8.10;99.90;;;;;;5043682;28;20436;-55
2021/11/22 04:21:49;;;;;;;10.97;8.33;;;8.10;99.90;;;;;;5043514;28;20194;-51
2021/11/22 04:24:15;;;;;;;9.60;6.80;;;8.10;99.90;;;;;;5042795;28;20579;-54
2021/11/22 04:26:40;;;;;;;12.00;8.90;;;8.10;99.90;;;;;;5041990;28;20214;-54
2021/11/22 04:29:06;;;;;;;11.50;8.30;;;8.20;99.90;;;;;;5040346;28;20275;-54
2021/11/22 04:31:32;;;;;;;11.87;8.90;;;8.30;99.90;;;;;;5044434;28;21307;-55
2021/11/22 04:33:58;;;;;;;12.90;9.70;;;8.20;99.90;;;;;;5043035;28;20883;-54
2021/11/22 04:36:24;;;;;;;10.70;8.80;;;8.20;99.90;;;;;;5043748;28;20196;-50
2021/11/22 04:38:49;;;;;;;12.80;8.90;;;8.20;99.90;;;;;;5042969;28;20898;-51
2021/11/22 04:41:15;;;;;;;13.13;8.63;;;8.20;99.90;;;;;;5040856;28;20188;-53
2021/11/22 04:43:40;;;;;;;13.10;9.47;;;8.10;99.90;;;;;;5042031;28;20191;-56
2021/11/22 04:46:06;;;;;;;12.70;9.20;;;8.00;99.90;;;;;;5038294;28;20270;-54
2021/11/22 04:48:32;;;;;;;14.43;9.77;;;8.00;99.90;;;;;;5040997;28;20194;-55
2021/11/22 04:50:57;;;;;;;13.33;9.70;;;8.10;99.90;;;;;;5043591;28;20231;-54
2021/11/22 04:53:23;;;;;;;13.23;9.73;;;8.20;99.90;;;;;;5043036;28;20191;-55
2021/11/22 04:55:49;;;;;;;14.23;10.43;;;8.10;99.90;;;;;;5042143;28;20225;-55
2021/11/22 04:58:15;;;;;;;13.43;9.93;;;8.20;99.90;;;;;;5043253;28;20537;-54
2021/11/22 05:00:41;;;;;;;15.17;10.40;;;8.30;99.90;;;;;;5041605;28;20548;-52
2021/11/22 05:03:08;;;;;;;14.30;10.33;;;8.30;99.90;;;;;;5040275;28;20442;-51
2021/11/22 05:05:34;;;;;;;15.27;9.73;;;8.30;99.90;;;;;;5043018;28;20192;-54
2021/11/22 05:08:06;;;;;;;16.30;11.30;;;8.20;99.90;;;;;;5043729;28;20553;-54
2021/11/22 05:10:38;;;;;;;16.97;11.80;;;8.20;99.90;;;;;;5042022;28;20473;-57
2021/11/22 05:13:05;;;;;;;15.20;10.67;;;8.30;99.90;;;;;;5038606;28;20447;-55
2021/11/22 05:15:32;;;;;;;14.03;10.80;;;8.20;99.90;;;;;;5042363;28;20454;-49
2021/11/22 05:17:58;;;;;;;15.63;10.27;;;8.20;99.90;;;;;;5042686;28;20531;-56
2021/11/22 05:20:23;;;;;;;15.00;10.77;;;8.20;99.90;;;;;;5042318;28;20543;-53
2021/11/22 05:22:49;;;;;;;16.67;11.10;;;8.20;99.90;;;;;;5040965;28;20211;-55
2021/11/22 05:25:15;;;;;;;13.40;9.57;;;8.30;99.90;;;;;;5042862;28;20210;-53
2021/11/22 05:27:41;;;;;;;16.50;10.20;;;8.20;99.90;;;;;;5041542;28;20466;-52
2021/11/22 05:30:06;;;;;;;14.40;10.67;;;8.10;99.90;;;;;;5041011;28;20222;-54
2021/11/22 05:32:32;;;;;;;17.73;11.57;;;8.10;99.90;;;;;;5042576;28;20191;-54
2021/11/22 05:34:58;;;;;;;13.10;9.70;;;8.20;99.90;;;;;;5039134;28;20211;-53
2021/11/22 05:37:27;;;;;;;13.60;9.73;;;8.40;99.90;;;;;;5038750;28;20212;-54
2021/11/22 05:39:54;;;;;;;13.00;9.63;;;8.40;99.90;;;;;;5041610;28;20242;-53
2021/11/22 05:42:19;;;;;;;17.17;10.60;;;8.20;99.90;;;;;;5044400;28;20442;-55
2021/11/22 05:44:45;;;;;;;16.83;10.53;;;8.10;99.90;;;;;;5041381;28;20435;-56
2021/11/22 05:47:14;;;;;;;12.43;9.20;;;8.00;99.90;;;;;;5040746;28;20200;-53
2021/11/22 05:49:40;;;;;;;14.67;10.13;;;8.00;99.90;;;;;;5040457;28;20816;-54
2021/11/22 05:52:09;;;;;;;16.23;11.57;;;8.10;99.90;;;;;;5043112;28;20430;-54
2021/11/22 05:54:44;;;;;;;14.67;10.20;;;8.10;99.90;;;;;;5039518;28;20824;-53
2021/11/22 05:57:10;;;;;;;14.53;10.03;;;7.90;99.90;;;;;;5040324;28;20434;-55
2021/11/22 05:59:36;;;;;;;17.70;10.03;;;7.80;99.90;;;;;;5042578;28;20493;-51
2021/11/22 06:02:02;;;;;;;12.27;9.10;;;7.80;99.90;;;;;;5037538;28;20273;-54
2021/11/22 06:04:27;;;;;;;15.73;11.17;;;7.90;99.90;;;;;;5042059;28;20207;-55
2021/11/22 06:06:53;;;;;;;14.67;9.47;;;7.90;99.90;;;;;;5041249;28;20208;-53
2021/11/22 06:09:19;;;;;;;12.93;9.03;;;8.00;99.90;;;;;;5039556;28;20227;-54
2021/11/22 06:11:44;;;;;;;13.27;9.23;;;8.10;99.90;;;;;;5043546;28;20203;-53
2021/11/22 06:14:10;;;;;;;10.80;8.30;;;8.20;99.90;;;;;;5040676;28;20187;-54
2021/11/22 06:16:35;;;;;;;12.47;9.67;;;8.30;99.90;;;;;;5036949;28;20197;-52
2021/11/22 06:19:01;;;;;;;11.87;8.57;;;8.40;99.90;;;;;;5042459;28;20275;-50
2021/11/22 06:21:26;;;;;;;9.77;7.97;;;8.50;99.90;;;;;;5039690;28;20222;-51
2021/11/22 06:23:52;;;;;;;11.60;8.63;;;8.50;99.90;;;;;;5039685;28;20195;-55
2021/11/22 06:26:18;;;;;;;10.30;8.53;;;8.50;99.90;;;;;;5041864;28;20183;-54
2021/11/22 06:28:44;;;;;;;13.77;10.10;;;8.40;99.90;;;;;;5038344;28;20187;-54
2021/11/22 06:31:10;;;;;;;12.40;9.63;;;8.30;99.90;;;;;;5040686;28;20195;-54
2021/11/22 06:33:36;;;;;;;14.20;9.87;;;8.30;99.90;;;;;;5041484;28;20502;-56
2021/11/22 06:36:02;;;;;;;14.63;9.90;;;8.30;99.90;;;;;;5040966;28;20274;-52
2021/11/22 06:38:27;;;;;;;11.87;9.20;;;8.30;99.90;;;;;;5041058;28;20187;-51
2021/11/22 06:40:53;;;;;;;15.40;9.73;;;8.40;99.90;;;;;;5041352;28;20461;-56
2021/11/22 06:43:19;;;;;;;13.20;8.57;;;8.40;99.90;;;;;;5042002;28;20253;-51
2021/11/22 06:45:45;;;;;;;15.10;10.57;;;8.40;99.90;;;;;;5038666;28;20191;-54
2021/11/22 06:48:11;;;;;;;15.80;10.20;;;8.50;99.90;;;;;;5039537;28;20477;-49
2021/11/22 06:50:36;;;;;;;16.33;10.53;;;8.50;99.90;;;;;;5038837;28;20522;-51
2021/11/22 06:53:03;;;;;;;13.43;9.60;;;8.40;99.90;;;;;;5054244;28;20187;-52
2021/11/22 06:55:29;;;;;;;17.23;10.90;;;8.30;99.90;;;;;;5041473;28;20633;-50
2021/11/22 06:57:54;;;;;;;15.60;10.60;;;8.30;99.90;;;;;;5035522;28;20541;-48
2021/11/22 07:00:21;;;;;;;21.10;12.03;;;8.30;99.90;;;;;;5040406;28;20606;-50
2021/11/22 07:02:50;;;;;;;14.97;11.07;;;8.40;99.90;;;;;;5039153;28;20180;-50
2021/11/22 07:05:20;;;;;;;15.70;10.47;;;8.30;99.90;;;;;;5032550;28;20434;-52
2021/11/22 07:07:46;;;;;;;18.70;11.70;;;8.40;99.90;;;;;;5040370;28;21046;-54
2021/11/22 07:10:12;;;;;;;19.97;12.80;;;8.40;99.90;;;;;;5039343;28;20477;-54
2021/11/22 07:12:38;;;;;;;18.07;11.47;;;8.40;99.90;;;;;;5045222;28;20436;-52
2021/11/22 07:15:05;;;;;;;19.30;11.93;;;8.40;99.90;;;;;;5041424;28;20433;-53
2021/11/22 07:17:31;;;;;;;19.33;11.83;;;8.50;99.90;;;;;;5041042;28;20780;-51
2021/11/22 07:19:56;;;;;;;18.20;12.47;;;8.60;99.90;;;;;;5044047;28;20461;-51
2021/11/22 07:22:24;;;;;;;18.63;13.37;;;8.60;99.90;;;;;;5044438;28;20284;-52
2021/11/22 07:24:50;;;;;;;17.60;13.40;;;8.50;99.90;;;;;;5038872;28;20584;-56
2021/11/22 07:27:17;;;;;;;19.67;12.80;;;8.40;99.90;;;;;;5041982;28;20477;-54
2021/11/22 07:29:43;;;;;;;18.87;12.53;;;8.40;99.90;;;;;;5042356;28;20526;-53
2021/11/22 07:32:10;;;;;;;17.97;12.60;;;8.50;99.90;;;;;;5045317;28;20923;-55
2021/11/22 07:34:36;;;;;;;22.43;12.83;;;8.40;99.90;;;;;;5043501;28;20438;-52
2021/11/22 07:37:02;;;;;;;23.80;13.33;;;8.50;99.90;;;;;;5041819;28;20539;-54
2021/11/22 07:39:28;;;;;;;22.30;13.90;;;8.60;99.90;;;;;;5043959;28;20568;-53
2021/11/22 07:41:56;;;;;;;27.33;14.60;;;8.50;99.90;;;;;;5040731;28;20511;-51
2021/11/22 07:44:23;;;;;;;22.40;12.70;;;8.50;99.90;;;;;;5043505;28;22005;-52
2021/11/22 07:46:49;;;;;;;20.93;13.83;;;8.50;99.90;;;;;;5041028;28;20469;-49
2021/11/22 07:49:15;;;;;;;20.17;13.70;;;8.50;99.90;;;;;;5040175;28;20468;-53
2021/11/22 07:51:41;;;;;;;25.90;12.97;;;8.50;99.90;;;;;;5041530;28;20605;-51
2021/11/22 07:54:07;;;;;;;20.10;13.30;;;8.50;99.90;;;;;;5043924;28;20813;-54
2021/11/22 07:56:32;;;;;;;21.60;13.77;;;8.50;99.90;;;;;;5043756;28;20440;-50
2021/11/22 07:58:58;;;;;;;20.50;13.40;;;8.50;99.90;;;;;;5037634;28;20191;-53
2021/11/22 08:01:25;;;;;;;28.47;13.43;;;8.50;99.90;;;;;;5034194;28;20200;-53
2021/11/22 08:03:50;;;;;;;30.90;13.30;;;8.40;99.90;;;;;;5043973;28;20220;-51
2021/11/22 08:06:17;;;;;;;20.23;11.47;;;8.50;99.90;;;;;;5040223;28;20966;-54
2021/11/22 08:08:43;;;;;;;22.53;12.00;;;8.50;99.90;;;;;;5034151;28;20259;-52
2021/11/22 08:13:38;;;;;;;21.73;13.20;;;8.70;99.90;;;;;;5042669;28;20434;-51
2021/11/22 08:16:07;;;;;;;17.67;10.97;;;8.70;99.90;;;;;;5040476;28;20431;-51
2021/11/22 08:18:34;;;;;;;18.20;11.20;;;8.80;99.90;;;;;;5043272;28;20434;-52
2021/11/22 08:21:00;;;;;;;19.90;12.17;;;8.80;99.90;;;;;;5040872;28;20557;-50
2021/11/22 08:23:26;;;;;;;26.40;11.50;;;8.70;99.90;;;;;;5041163;28;20443;-49
2021/11/22 08:25:52;;;;;;;23.90;11.27;;;8.80;99.90;;;;;;5042880;28;20495;-54
2021/11/22 08:28:18;;;;;;;21.47;10.10;;;8.90;99.90;;;;;;5041730;28;20210;-50
2021/11/22 08:30:44;;;;;;;17.37;12.30;;;9.00;99.90;;;;;;5041823;28;20458;-53
2021/11/22 08:33:13;;;;;;;18.20;11.87;;;8.80;99.90;;;;;;5043726;28;20812;-52
2021/11/22 08:35:39;;;;;;;17.73;10.67;;;8.90;99.90;;;;;;5041646;28;20545;-50
2021/11/22 08:38:05;;;;;;;18.97;11.20;;;9.00;99.90;;;;;;5043177;28;20458;-53
2021/11/22 08:40:31;;;;;;;17.70;10.83;;;9.00;99.90;;;;;;5041067;28;20686;-51
2021/11/22 08:42:57;;;;;;;18.90;12.13;;;9.00;99.90;;;;;;5040231;28;20515;-50
2021/11/22 08:45:23;;;;;;;15.37;10.40;;;9.00;99.90;;;;;;5044535;28;20520;-54
2021/11/22 08:47:50;;;;;;;18.33;11.13;;;9.00;99.90;;;;;;5041597;28;20200;-52
2021/11/22 08:50:17;;;;;;;19.00;11.80;;;9.00;99.90;;;;;;5042500;28;21224;-48
2021/11/22 08:52:44;;;;;;;25.90;13.10;;;9.10;99.90;;;;;;5042649;28;20462;-52
2021/11/22 08:55:12;;;;;;;22.30;10.67;;;9.10;99.90;;;;;;5040861;28;20513;-53
2021/11/22 08:57:38;;;;;;;15.47;10.77;;;9.10;99.90;;;;;;5044367;28;20496;-47
2021/11/22 09:00:10;;;;;;;15.13;10.97;;;9.10;99.90;;;;;;5040895;28;20494;-50
2021/11/22 09:02:36;;;;;;;20.67;12.80;;;9.00;99.90;;;;;;5040049;28;20444;-47
2021/11/22 09:05:01;;;;;;;15.40;10.23;;;8.90;99.90;;;;;;5043244;28;20434;-46
2021/11/22 09:07:27;;;;;;;18.37;10.20;;;8.90;99.90;;;;;;5041561;28;20200;-47
2021/11/22 09:09:53;;;;;;;12.97;10.17;;;8.90;99.90;;;;;;5041500;28;20598;-49
2021/11/22 09:12:34;;;;;;;19.13;10.10;;;8.80;99.90;;;;;;5033478;28;20184;-49
2021/11/22 09:15:00;;;;;;;16.60;9.83;;;8.80;99.90;;;;;;5040515;28;20184;-49
2021/11/22 09:17:25;;;;;;;16.40;10.70;;;8.80;99.90;;;;;;5038572;28;20438;-49
2021/11/22 09:19:51;;;;;;;17.93;10.67;;;8.90;99.90;;;;;;5040250;28;20486;-54
2021/11/22 09:22:17;;;;;;;17.40;9.40;;;8.90;99.90;;;;;;5042233;28;20730;-55
2021/11/22 09:24:43;;;;;;;21.23;10.43;;;8.90;99.90;;;;;;5041923;28;21067;-52
2021/11/22 09:27:09;;;;;;;11.60;9.93;;;8.80;99.90;;;;;;5042691;28;20274;-52
2021/11/22 09:29:36;;;;;;;18.40;9.70;;;8.80;99.90;;;;;;5039766;28;20599;-56
2021/11/22 09:32:02;;;;;;;16.43;9.50;;;8.90;99.90;;;;;;5041313;28;20437;-49
2021/11/22 09:34:28;;;;;;;12.73;9.80;;;9.00;99.90;;;;;;5040472;28;20989;-56
2021/11/22 09:36:53;;;;;;;14.40;8.93;;;9.00;99.90;;;;;;5040085;28;20446;-51
2021/11/22 09:39:20;;;;;;;18.63;10.33;;;9.20;99.90;;;;;;5041171;28;20215;-51
2021/11/22 09:41:48;;;;;;;17.13;9.97;;;9.10;99.90;;;;;;5042210;28;20250;-53
2021/11/22 09:44:15;;;;;;;13.80;9.70;;;9.10;99.90;;;;;;5039714;28;20441;-56
2021/11/22 09:46:41;;;;;;;13.40;7.80;;;9.20;99.90;;;;;;5041620;28;20561;-52
2021/11/22 09:49:07;;;;;;;21.40;8.13;;;9.30;99.90;;;;;;5040550;28;20426;-53
2021/11/22 09:51:33;;;;;;;17.70;8.33;;;9.20;99.90;;;;;;5039795;28;20465;-52
2021/11/22 09:53:59;;;;;;;11.23;8.67;;;9.20;99.90;;;;;;5037683;28;20821;-55
2021/11/22 09:56:26;;;;;;;8.90;7.70;;;9.20;99.90;;;;;;5043960;28;20449;-51
2021/11/22 09:58:52;;;;;;;16.43;9.90;;;9.30;99.90;;;;;;5040940;28;20469;-48
2021/11/22 10:01:18;;;;;;;11.40;8.60;;;9.30;99.90;;;;;;5039028;28;20451;-55
2021/11/22 10:04:07;;;;;;;14.23;8.07;;;9.40;99.90;;;;;;5037986;28;20426;-48
2021/11/22 10:06:55;;;;;;;12.63;8.63;;;9.40;99.90;;;;;;5040726;28;20469;-52
2021/11/22 10:09:32;;;;;;;10.83;8.30;;;9.30;99.90;;;;;;5040039;28;21347;-55
2021/11/22 10:12:21;;;;;;;14.57;7.63;;;9.20;99.90;;;;;;5039325;28;20426;-53
2021/11/22 10:14:53;;;;;;;11.60;8.07;;;9.20;99.90;;;;;;5040721;28;20441;-52
2021/11/22 10:17:32;;;;;;;11.83;8.07;;;9.20;99.90;;;;;;5038951;28;20449;-54
2021/11/22 10:20:07;;;;;;;11.30;8.00;;;9.20;99.90;;;;;;5039182;28;21021;-55
2021/11/22 10:23:06;;;;;;;13.43;8.63;;;9.10;99.90;;;;;;5043485;28;20495;-54
2021/11/22 10:25:38;;;;;;;13.30;8.20;;;9.00;99.90;;;;;;5040556;28;20461;-55
2021/11/22 10:28:10;;;;;;;19.07;8.40;;;9.00;99.90;;;;;;5038672;28;20846;-53
2021/11/22 10:30:40;;;;;;;11.00;7.30;;;9.10;99.90;;;;;;5039950;28;20472;-51
2021/11/22 10:33:07;;;;;;;10.10;8.00;;;9.20;99.90;;;;;;5040458;28;20443;-52
2021/11/22 10:35:34;;;;;;;13.50;7.63;;;9.00;99.90;;;;;;5041064;28;20462;-53
2021/11/22 10:38:10;;;;;;;10.03;8.10;;;9.00;99.90;;;;;;5040238;28;20473;-55
2021/11/22 10:40:39;;;;;;;8.93;7.27;;;9.10;99.90;;;;;;5037551;28;20468;-52
2021/11/22 10:43:06;;;;;;;9.00;6.87;;;9.30;99.90;;;;;;5034763;28;20446;-52
2021/11/22 10:45:39;;;;;;;11.53;6.57;;;9.40;99.90;;;;;;5035939;28;20438;-50
2021/11/22 10:48:50;;;;;;;15.60;7.27;;;9.30;99.90;;;;;;5039474;28;20472;-51
2021/11/22 10:51:11;;;;;;;13.00;8.43;;;9.30;99.90;;;;;;5021203;28;20462;-55
2021/11/22 10:53:49;;;;;;;9.20;6.90;;;9.40;99.90;;;;;;5038004;28;20438;-55
2021/11/22 10:56:17;;;;;;;7.73;6.63;;;9.40;99.90;;;;;;5039551;28;20885;-52
2021/11/22 10:58:59;;;;;;;9.70;6.50;;;9.50;99.90;;;;;;5040743;28;20484;-50
2021/11/22 11:01:37;;;;;;;12.90;6.93;;;9.60;99.90;;;;;;5037521;28;20472;-56
2021/11/22 11:04:08;;;;;;;19.30;7.60;;;9.40;99.90;;;;;;5039276;28;20525;-52
2021/11/22 11:06:50;;;;;;;9.73;6.63;;;9.40;99.90;;;;;;5035844;28;20804;-54
2021/11/22 11:09:23;;;;;;;13.93;6.87;;;9.40;99.90;;;;;;5036916;28;20470;-54
2021/11/22 11:12:11;;;;;;;9.90;6.10;;;9.60;99.90;;;;;;5039334;28;20949;-54
2021/11/22 11:14:52;;;;;;;10.03;7.40;;;9.70;99.90;;;;;;5038655;28;20497;-51
2021/11/22 11:17:24;;;;;;;11.10;7.67;;;9.70;99.90;;;;;;5037102;28;20451;-52
2021/11/22 11:19:54;;;;;;;8.87;6.50;;;9.70;99.90;;;;;;5040330;28;20493;-52
2021/11/22 11:22:20;;;;;;;14.10;7.83;;;9.70;99.90;;;;;;5037717;28;20979;-52
2021/11/22 11:24:46;;;;;;;11.97;7.07;;;9.70;99.90;;;;;;5038626;28;20449;-54
2021/11/22 11:27:12;;;;;;;7.97;6.63;;;9.70;99.90;;;;;;5038526;28;20466;-54
2021/11/22 11:29:38;;;;;;;10.07;5.60;;;9.70;99.90;;;;;;5039336;28;20341;-49
2021/11/22 11:32:04;;;;;;;8.67;6.43;;;9.80;99.90;;;;;;5038059;28;20924;-55
2021/11/22 11:34:34;;;;;;;10.23;6.27;;;9.80;99.90;;;;;;5033464;28;20443;-49
2021/11/22 11:37:30;;;;;;;9.40;5.97;;;9.80;99.90;;;;;;5035900;28;20566;-53
2021/11/22 11:40:47;;;;;;;10.97;5.17;;;9.80;99.90;;;;;;5037024;28;20994;-51
2021/11/22 11:43:34;;;;;;;6.97;5.43;;;9.80;99.90;;;;;;5022479;28;20546;-49
2021/11/22 11:46:53;;;;;;;15.63;6.83;;;9.70;99.90;;;;;;5031730;28;20474;-49
2021/11/22 11:49:31;;;;;;;10.03;6.37;;;9.90;99.90;;;;;;4978404;28;20468;-54
2021/11/22 11:51:56;;;;;;;7.13;5.53;;;10.10;99.90;;;;;;5037709;28;20462;-52
2021/11/22 11:54:27;;;;;;;7.83;5.40;;;10.10;99.90;;;;;;5038955;28;20477;-52
2021/11/22 11:57:02;;;;;;;7.70;5.33;;;10.20;99.90;;;;;;5039932;28;20662;-51
2021/11/22 11:59:40;;;;;;;5.90;5.30;;;10.30;99.90;;;;;;5043402;28;20947;-49
2021/11/22 12:02:10;;;;;;;5.90;5.27;;;10.40;99.90;;;;;;5040496;28;20445;-56
2021/11/22 12:04:46;;;;;;;8.47;5.97;;;10.40;99.90;;;;;;5041899;28;20460;-52
2021/11/22 12:07:21;;;;;;;7.80;5.60;;;10.30;99.90;;;;;;5043138;28;20840;-51
2021/11/22 12:09:59;;;;;;;6.67;4.50;;;10.10;99.90;;;;;;5040855;28;20461;-56
2021/11/22 12:12:36;;;;;;;8.83;5.30;;;10.10;99.90;;;;;;5040293;28;20442;-55
2021/11/22 12:15:21;;;;;;;7.57;4.00;;;10.00;99.90;;;;;;5040414;28;20900;-51
2021/11/22 12:17:46;;;;;;;4.57;3.37;;;10.30;99.90;;;;;;5042202;28;20495;-51
2021/11/22 12:20:18;;;;;;;8.60;3.90;;;10.30;99.90;;;;;;5041527;28;20462;-52
2021/11/22 12:22:49;;;;;;;8.20;3.87;;;10.30;99.90;;;;;;5042896;28;20222;-50
2021/11/22 12:25:42;;;;;;;9.23;4.20;;;10.30;99.90;;;;;;5036612;28;20427;-53
2021/11/22 12:28:13;;;;;;;3.60;2.90;;;10.30;99.90;;;;;;5042544;28;20462;-55
2021/11/22 12:30:45;;;;;;;4.27;3.40;;;10.40;99.90;;;;;;5044169;28;20840;-51
2021/11/22 12:33:24;;;;;;;9.53;3.40;;;10.40;99.90;;;;;;5043658;28;20431;-51
2021/11/22 12:36:01;;;;;;;10.00;4.57;;;10.40;99.90;;;;;;5043000;28;20608;-51
2021/11/22 12:38:36;;;;;;;20.23;4.40;;;10.30;99.90;;;;;;5041747;28;21196;-49
2021/11/22 12:41:05;;;;;;;18.43;4.50;;;10.20;99.90;;;;;;5043678;28;20462;-52
2021/11/22 12:43:43;;;;;;;7.10;2.90;;;10.10;99.90;;;;;;5044080;28;20553;-53
2021/11/22 12:46:19;;;;;;;8.43;3.63;;;10.40;99.90;;;;;;5040415;28;20441;-51
2021/11/22 12:48:47;;;;;;;3.97;3.43;;;10.40;99.90;;;;;;5035552;28;20437;-50
2021/11/22 12:51:22;;;;;;;5.30;4.00;;;10.60;99.90;;;;;;5038371;28;20991;-48